createdAt,value
2022-08-21T00:02:22.678Z,76181.28
2022-08-21T00:04:57.528Z,76193.22
2022-08-21T00:07:25.256Z,76199.19
2022-08-21T00:09:52.889Z,76145.53
2022-08-21T00:12:20.033Z,76145.53
2022-08-21T00:14:46.968Z,76135.59
2022-08-21T00:17:13.642Z,76153.47
2022-08-21T00:19:40.349Z,76143.53
2022-08-21T00:22:06.911Z,76177.31
2022-08-21T00:24:33.565Z,76185.25
2022-08-21T00:27:00.479Z,76141.56
2022-08-21T00:29:27.028Z,76131.63
2022-08-21T00:31:53.680Z,76159.44
2022-08-21T00:34:20.374Z,76153.47
2022-08-21T00:36:46.909Z,76153.47
2022-08-21T00:39:13.641Z,76167.38
2022-08-21T00:41:40.856Z,76161.44
2022-08-21T00:44:12.512Z,76179.31
2022-08-21T00:46:40.492Z,76173.34
2022-08-21T00:49:08.471Z,76183.28
2022-08-21T00:51:51.531Z,76183.28
2022-08-21T00:54:19.877Z,76201.16
2022-08-21T00:56:50.879Z,76197.19
2022-08-21T00:59:20.220Z,76195.19
2022-08-21T01:01:47.946Z,76181.28
2022-08-21T01:04:16.701Z,76193.22
2022-08-21T01:06:44.172Z,76195.19
2022-08-21T01:09:11.424Z,76193.22
2022-08-21T01:11:38.673Z,76187.25
2022-08-21T01:14:05.356Z,76189.25
2022-08-21T01:16:33.688Z,76175.34
2022-08-21T01:19:00.714Z,76173.34
2022-08-21T01:21:29.142Z,76199.19
2022-08-21T01:23:57.856Z,76211.09
2022-08-21T01:26:33.986Z,76221.03
2022-08-21T01:29:15.452Z,76217.06
2022-08-21T01:31:42.035Z,76230.97
2022-08-21T01:34:09.819Z,76242.88
2022-08-21T01:36:36.696Z,76236.94
2022-08-21T01:39:05.898Z,76242.88
2022-08-21T01:41:32.589Z,76232.94
2022-08-21T01:43:59.210Z,76232.94
2022-08-21T01:46:25.832Z,76228.97
2022-08-21T01:48:52.559Z,76217.06
2022-08-21T01:51:19.681Z,76225.00
2022-08-21T01:53:46.320Z,76217.06
2022-08-21T01:56:15.023Z,76215.06
2022-08-21T01:58:42.840Z,76221.03
2022-08-21T02:01:10.572Z,76189.25
2022-08-21T02:03:38.257Z,76181.28
2022-08-21T02:06:07.862Z,76181.28
2022-08-21T02:08:35.347Z,76189.25
2022-08-21T02:11:02.352Z,76181.28
2022-08-21T02:13:29.088Z,76177.31
2022-08-21T02:15:55.684Z,76185.25
2022-08-21T02:18:22.262Z,76193.22
2022-08-21T02:20:55.812Z,76217.06
2022-08-21T02:23:26.953Z,76219.03
2022-08-21T02:25:55.853Z,76230.97
2022-08-21T02:28:22.936Z,76230.97
2022-08-21T02:30:51.713Z,76242.88
2022-08-21T02:33:18.821Z,76244.88
2022-08-21T02:35:47.312Z,76240.91
2022-08-21T02:38:20.699Z,76234.94
2022-08-21T02:40:51.017Z,76256.78
2022-08-21T02:43:19.691Z,76264.75
2022-08-21T02:45:47.692Z,76276.66
2022-08-21T02:48:18.408Z,76276.66
2022-08-21T02:50:48.866Z,76270.72
2022-08-21T02:53:17.712Z,76286.59
2022-08-21T02:55:49.700Z,76280.66
2022-08-21T02:58:19.748Z,76272.69
2022-08-21T03:00:46.770Z,76272.69
2022-08-21T03:03:15.696Z,76264.75
2022-08-21T03:05:44.340Z,76276.66
2022-08-21T03:08:13.167Z,76294.56
2022-08-21T03:10:43.604Z,76310.44
2022-08-21T03:13:10.756Z,76308.47
2022-08-21T03:15:38.046Z,76310.44
2022-08-21T03:18:06.040Z,76334.28
2022-08-21T03:20:33.612Z,76326.34
2022-08-21T03:23:01.734Z,76340.25
2022-08-21T03:25:33.309Z,76352.19
2022-08-21T03:28:12.984Z,76360.13
2022-08-21T03:30:42.275Z,76362.09
2022-08-21T03:33:09.253Z,76372.03
2022-08-21T03:35:39.842Z,76362.09
2022-08-21T03:38:06.682Z,76364.09
2022-08-21T03:40:33.328Z,76368.06
2022-08-21T03:43:00.089Z,76362.09
2022-08-21T03:45:26.670Z,76376.03
2022-08-21T03:47:56.870Z,76364.09
2022-08-21T03:50:25.086Z,76376.03
2022-08-21T03:52:51.887Z,76380.00
2022-08-21T03:55:18.498Z,76381.97
2022-08-21T03:57:45.129Z,76364.09
2022-08-21T04:00:13.152Z,76372.03
2022-08-21T04:02:40.775Z,76372.03
2022-08-21T04:05:08.352Z,76372.03
2022-08-21T04:07:34.970Z,76378.00
2022-08-21T04:10:01.469Z,76370.06
2022-08-21T04:12:28.004Z,76368.06
2022-08-21T04:14:54.560Z,76366.09
2022-08-21T04:17:21.149Z,76374.03
2022-08-21T04:19:50.568Z,76364.09
2022-08-21T04:22:20.162Z,76380.00
2022-08-21T04:24:46.661Z,76370.06
2022-08-21T04:27:13.189Z,76380.00
2022-08-21T04:29:40.200Z,76354.16
2022-08-21T04:32:07.344Z,76356.16
2022-08-21T04:34:34.118Z,76364.09
2022-08-21T04:37:00.697Z,76342.25
2022-08-21T04:39:29.506Z,76352.19
2022-08-21T04:41:57.635Z,76370.06
2022-08-21T04:44:24.596Z,76374.03
2022-08-21T04:46:51.358Z,76376.03
2022-08-21T04:49:19.022Z,76397.88
2022-08-21T04:51:45.869Z,76395.91
2022-08-21T04:54:18.232Z,76401.84
2022-08-21T04:56:54.742Z,76401.84
2022-08-21T04:59:29.224Z,76399.88
2022-08-21T05:01:58.080Z,76401.84
2022-08-21T05:04:31.155Z,76401.84
2022-08-21T05:07:03.252Z,76395.91
2022-08-21T05:09:31.176Z,76383.97
2022-08-21T05:11:58.537Z,76372.03
2022-08-21T05:14:27.390Z,76380.00
2022-08-21T05:16:53.941Z,76376.03
2022-08-21T05:19:20.598Z,76383.97
2022-08-21T05:21:49.262Z,76381.97
2022-08-21T05:24:16.897Z,76376.03
2022-08-21T05:26:46.329Z,76354.16
2022-08-21T05:29:16.628Z,76346.22
2022-08-21T05:31:44.077Z,76352.19
2022-08-21T05:34:16.317Z,76344.22
2022-08-21T05:36:45.919Z,76344.22
2022-08-21T05:39:12.947Z,76328.34
2022-08-21T05:41:42.614Z,76344.22
2022-08-21T05:44:10.081Z,76348.19
2022-08-21T05:46:38.528Z,76328.34
2022-08-21T05:49:05.135Z,76332.31
2022-08-21T05:51:32.228Z,76304.50
2022-08-21T05:53:58.862Z,76292.56
2022-08-21T05:56:25.488Z,76284.63
2022-08-21T05:58:53.348Z,76276.66
2022-08-21T06:01:19.962Z,76292.56
2022-08-21T06:03:46.821Z,76302.50
2022-08-21T06:06:15.273Z,76312.44
2022-08-21T06:08:41.876Z,76326.34
2022-08-21T06:11:11.199Z,76304.50
2022-08-21T06:13:38.360Z,76312.44
2022-08-21T06:16:22.333Z,76304.50
2022-08-21T06:18:49.250Z,76296.53
2022-08-21T06:21:25.271Z,76304.50
2022-08-21T06:23:51.846Z,76296.53
2022-08-21T06:26:37.931Z,76308.47
2022-08-21T06:29:08.514Z,76282.63
2022-08-21T06:31:35.149Z,76278.66
2022-08-21T06:34:04.083Z,76262.75
2022-08-21T06:36:31.024Z,76254.81
2022-08-21T06:39:02.963Z,76248.84
2022-08-21T06:41:48.449Z,76264.75
2022-08-21T06:44:26.003Z,76258.78
2022-08-21T06:46:52.866Z,76244.88
2022-08-21T06:49:21.640Z,76258.78
2022-08-21T06:51:48.684Z,76238.91
2022-08-21T06:54:15.397Z,76240.91
2022-08-21T06:56:42.224Z,76254.81
2022-08-21T06:59:08.797Z,76246.88
2022-08-21T07:01:35.539Z,76266.72
2022-08-21T07:04:02.821Z,76256.78
2022-08-21T07:06:29.666Z,76264.75
2022-08-21T07:09:02.186Z,76262.75
2022-08-21T07:11:32.200Z,76258.78
2022-08-21T07:14:09.080Z,76244.88
2022-08-21T07:16:44.484Z,76242.88
2022-08-21T07:19:11.218Z,76230.97
2022-08-21T07:21:40.598Z,76223.03
2022-08-21T07:24:07.251Z,76238.91
2022-08-21T07:26:33.994Z,76230.97
2022-08-21T07:29:00.683Z,76221.03
2022-08-21T07:31:28.024Z,76189.25
2022-08-21T07:33:55.048Z,76207.13
2022-08-21T07:36:21.854Z,76219.03
2022-08-21T07:38:54.571Z,76215.06
2022-08-21T07:41:39.952Z,76217.06
2022-08-21T07:44:06.714Z,76201.16
2022-08-21T07:46:33.650Z,76201.16
2022-08-21T07:49:03.197Z,76225.00
2022-08-21T07:51:42.058Z,76203.16
2022-08-21T07:54:09.724Z,76191.22
2022-08-21T07:56:46.740Z,76181.28
2022-08-21T07:59:20.128Z,76149.50
2022-08-21T08:01:46.777Z,76131.63
2022-08-21T08:04:26.436Z,76135.59
2022-08-21T08:06:56.722Z,76141.56
2022-08-21T08:09:24.376Z,76129.63
2022-08-21T08:11:53.042Z,76141.56
2022-08-21T08:14:21.652Z,76119.69
2022-08-21T08:16:58.227Z,76101.81
2022-08-21T08:19:24.700Z,76093.88
2022-08-21T08:21:51.235Z,76083.94
2022-08-21T08:24:19.252Z,76089.91
2022-08-21T08:26:46.878Z,76105.78
2022-08-21T08:29:20.300Z,76087.91
2022-08-21T08:31:46.840Z,76077.97
2022-08-21T08:34:13.429Z,76074.00
2022-08-21T08:36:54.435Z,76054.13
2022-08-21T08:39:26.992Z,76054.13
2022-08-21T08:42:33.594Z,76062.06
2022-08-21T08:45:13.270Z,76044.19
2022-08-21T08:47:45.727Z,76058.09
2022-08-21T08:50:19.708Z,76070.03
2022-08-21T08:52:59.810Z,76056.13
2022-08-21T08:55:35.573Z,76032.28
2022-08-21T08:58:03.642Z,76012.41
2022-08-21T09:00:32.077Z,76014.41
2022-08-21T09:03:02.324Z,76004.47
2022-08-21T09:05:43.585Z,75970.69
2022-08-21T09:08:29.224Z,75990.56
2022-08-21T09:11:04.639Z,76008.44
2022-08-21T09:13:56.129Z,75978.63
2022-08-21T09:16:49.199Z,76018.38
2022-08-21T09:19:47.375Z,76016.38
2022-08-21T09:22:33.284Z,75970.69
2022-08-21T09:25:27.492Z,75958.75
2022-08-21T09:27:55.780Z,75960.75
2022-08-21T09:30:33.191Z,75936.91
2022-08-21T09:33:01.024Z,75919.03
2022-08-21T09:35:27.937Z,75911.06
2022-08-21T09:37:56.246Z,75907.09
2022-08-21T09:40:35.230Z,75877.31
2022-08-21T09:43:18.074Z,75887.22
2022-08-21T09:46:10.931Z,75873.31
2022-08-21T09:48:49.528Z,75883.25
2022-08-21T09:51:19.548Z,75873.31
2022-08-21T09:54:07.150Z,75873.31
2022-08-21T09:57:00.278Z,75853.47
2022-08-21T09:59:37.136Z,75835.59
2022-08-21T10:02:25.437Z,75859.41
2022-08-21T10:05:31.465Z,75839.56
2022-08-21T10:08:01.892Z,75859.41
2022-08-21T10:10:38.683Z,75845.50
2022-08-21T10:13:07.580Z,75865.38
2022-08-21T10:15:48.303Z,75827.63
2022-08-21T10:18:27.497Z,75811.75
2022-08-21T10:21:00.175Z,75795.84
2022-08-21T10:23:49.000Z,75801.81
2022-08-21T10:26:37.117Z,75795.84
2022-08-21T10:29:30.273Z,75801.81
2022-08-21T10:32:22.406Z,75777.97
2022-08-21T10:35:22.739Z,75746.19
2022-08-21T10:38:50.281Z,75748.16
2022-08-21T10:41:27.066Z,75728.31
2022-08-21T10:44:13.849Z,75740.22
2022-08-21T10:47:05.337Z,75764.06
2022-08-21T10:49:45.411Z,75756.13
2022-08-21T10:52:30.178Z,75732.28
2022-08-21T10:55:21.755Z,75716.38
2022-08-21T10:58:14.615Z,75724.31
2022-08-21T11:00:51.571Z,75777.97
2022-08-21T11:03:30.659Z,75744.19
2022-08-21T11:06:06.653Z,75742.19
2022-08-21T11:08:40.004Z,75740.22
2022-08-21T11:11:46.664Z,75716.38
2022-08-21T11:15:06.982Z,75694.53
2022-08-21T11:17:53.879Z,75718.38
2022-08-21T11:20:33.529Z,75690.56
2022-08-21T11:23:34.742Z,75710.41
2022-08-21T11:26:13.547Z,75680.63
2022-08-21T11:28:50.100Z,75636.91
2022-08-21T11:31:47.199Z,75634.94
2022-08-21T11:34:26.601Z,75646.84
2022-08-21T11:37:22.645Z,75611.09
2022-08-21T11:40:03.630Z,75587.25
2022-08-21T11:42:33.034Z,75593.22
2022-08-21T11:45:18.879Z,75607.13
2022-08-21T11:47:53.855Z,75583.28
2022-08-21T11:50:35.739Z,75597.19
2022-08-21T11:53:26.803Z,75603.13
2022-08-21T11:56:12.047Z,75591.22
2022-08-21T11:58:52.380Z,75595.19
2022-08-21T12:01:28.369Z,75603.13
2022-08-21T12:04:09.515Z,75613.06
2022-08-21T12:06:42.126Z,75626.97
2022-08-21T12:09:32.587Z,75656.78
2022-08-21T12:12:06.329Z,75724.31
2022-08-21T12:14:46.097Z,75704.47
2022-08-21T12:17:24.171Z,75670.69
2022-08-21T12:20:02.611Z,75660.75
2022-08-21T12:22:41.799Z,75658.75
2022-08-21T12:25:21.957Z,75666.72
2022-08-21T12:27:52.891Z,75648.84
2022-08-21T12:30:28.409Z,75650.81
2022-08-21T12:33:01.634Z,75650.81
2022-08-21T12:35:44.611Z,75646.84
2022-08-21T12:38:19.408Z,75652.81
2022-08-21T12:40:55.800Z,75625.00
2022-08-21T12:43:30.502Z,75603.13
2022-08-21T12:45:59.991Z,75597.19
2022-08-21T12:48:58.274Z,75573.34
2022-08-21T12:51:30.078Z,75571.34
2022-08-21T12:53:59.530Z,75599.16
2022-08-21T12:56:31.196Z,75577.31
2022-08-21T12:59:07.830Z,75565.41
2022-08-21T13:01:41.803Z,75571.34
2022-08-21T13:04:25.976Z,75589.22
2022-08-21T13:06:55.517Z,75625.00
2022-08-21T13:09:29.088Z,75640.88
2022-08-21T13:11:56.746Z,75628.97
2022-08-21T13:14:33.092Z,75609.09
2022-08-21T13:17:01.161Z,75577.31
2022-08-21T13:19:30.583Z,75555.47
2022-08-21T13:21:57.342Z,75543.53
2022-08-21T13:24:46.175Z,75547.50
2022-08-21T13:27:22.024Z,75531.63
2022-08-21T13:29:53.088Z,75517.72
2022-08-21T13:32:27.050Z,75533.59
2022-08-21T13:34:54.470Z,75503.81
2022-08-21T13:37:23.720Z,75499.84
2022-08-21T13:39:53.839Z,75519.69
2022-08-21T13:42:21.249Z,75479.97
2022-08-21T13:44:49.000Z,75456.13
2022-08-21T13:47:18.106Z,75476.00
2022-08-21T13:49:48.368Z,75458.13
2022-08-21T13:52:27.469Z,75466.06
2022-08-21T13:55:11.093Z,75493.88
2022-08-21T13:57:38.874Z,75493.88
2022-08-21T14:00:27.905Z,75495.88
2022-08-21T14:03:00.743Z,75487.91
2022-08-21T14:05:30.578Z,75485.94
2022-08-21T14:08:06.286Z,75503.81
2022-08-21T14:10:37.578Z,75513.75
2022-08-21T14:13:07.286Z,75517.72
2022-08-21T14:15:36.628Z,75515.72
2022-08-21T14:18:18.555Z,75509.78
2022-08-21T14:20:46.622Z,75489.91
2022-08-21T14:23:26.557Z,75517.72
2022-08-21T14:25:54.049Z,75505.78
2022-08-21T14:28:28.166Z,75493.88
2022-08-21T14:30:56.998Z,75523.69
2022-08-21T14:33:34.200Z,75515.72
2022-08-21T14:36:02.878Z,75487.91
2022-08-21T14:38:30.635Z,75485.94
2022-08-21T14:41:05.364Z,75501.81
2022-08-21T14:43:32.193Z,75517.72
2022-08-21T14:46:02.288Z,75485.94
2022-08-21T14:48:28.843Z,75487.91
2022-08-21T14:51:00.195Z,75487.91
2022-08-21T14:53:27.243Z,75476.00
2022-08-21T14:56:07.694Z,75456.13
2022-08-21T14:58:38.404Z,75438.25
2022-08-21T15:01:07.787Z,75444.22
2022-08-21T15:03:35.283Z,75426.34
2022-08-21T15:06:02.447Z,75412.44
2022-08-21T15:08:29.088Z,75400.50
2022-08-21T15:11:11.836Z,75334.97
2022-08-21T15:13:39.361Z,75255.50
2022-08-21T15:16:06.080Z,75265.44
2022-08-21T15:18:32.768Z,75291.25
2022-08-21T15:20:59.384Z,75128.38
2022-08-21T15:23:25.906Z,75064.81
2022-08-21T15:25:54.765Z,74999.25
2022-08-21T15:28:22.269Z,74899.94
2022-08-21T15:30:49.691Z,74892.00
2022-08-21T15:33:16.238Z,75027.06
2022-08-21T15:35:42.924Z,75086.66
2022-08-21T15:38:11.370Z,75080.69
2022-08-21T15:40:45.369Z,75082.69
2022-08-21T15:43:38.227Z,75168.09
2022-08-21T15:46:06.773Z,75340.91
2022-08-21T15:48:33.292Z,75414.41
2022-08-21T15:50:59.844Z,75420.38
2022-08-21T15:53:26.557Z,75460.09
2022-08-21T15:55:55.168Z,75499.84
2022-08-21T15:58:22.913Z,75523.69
2022-08-21T16:00:49.699Z,75553.47
2022-08-21T16:03:20.885Z,75559.44
2022-08-21T16:05:52.684Z,75613.06
2022-08-21T16:08:20.974Z,75628.97
2022-08-21T16:13:43.663Z,75648.84
2022-08-21T16:16:18.752Z,75676.66
2022-08-21T16:18:46.007Z,75692.53
2022-08-21T16:21:12.560Z,75714.41
2022-08-21T16:23:40.442Z,75730.28
2022-08-21T16:26:09.103Z,75750.16
2022-08-21T16:28:43.524Z,75768.03
2022-08-21T16:31:10.487Z,75787.91
2022-08-21T16:33:51.044Z,75799.81
2022-08-21T16:36:20.947Z,75831.59
2022-08-21T16:38:48.935Z,75853.47
2022-08-21T16:41:19.714Z,75863.41
2022-08-21T16:43:47.028Z,75881.28
2022-08-21T16:46:15.494Z,75891.22
2022-08-21T16:48:46.431Z,75911.06
2022-08-21T16:51:17.309Z,75911.06
2022-08-21T16:53:44.504Z,75919.03
2022-08-21T16:56:13.539Z,75938.91
2022-08-21T16:58:44.398Z,75950.81
2022-08-21T17:01:15.385Z,75956.78
2022-08-21T17:03:48.112Z,75960.75
2022-08-21T17:06:16.516Z,75978.63
2022-08-21T17:08:44.468Z,76002.47
2022-08-21T17:11:36.751Z,76008.44
2022-08-21T17:14:16.011Z,76002.47
2022-08-21T17:16:47.312Z,76006.44
2022-08-21T17:19:14.323Z,76016.38
2022-08-21T17:21:41.359Z,76014.41
2022-08-21T17:24:08.355Z,76018.38
2022-08-21T17:26:37.069Z,76034.25
2022-08-21T17:29:09.812Z,76036.25
2022-08-21T17:31:38.992Z,76050.16
2022-08-21T17:34:06.079Z,76056.13
2022-08-21T17:36:33.170Z,76070.03
2022-08-21T17:38:59.930Z,76072.00
2022-08-21T17:41:26.716Z,76068.03
2022-08-21T17:43:55.074Z,76077.97
2022-08-21T17:46:29.264Z,76070.03
2022-08-21T17:48:57.014Z,76079.97
2022-08-21T17:51:24.030Z,76087.91
2022-08-21T17:53:50.598Z,76103.81
2022-08-21T17:56:19.154Z,76107.78
2022-08-21T17:58:51.539Z,76115.72
2022-08-21T18:01:20.358Z,76127.66
2022-08-21T18:03:48.259Z,76133.59
2022-08-21T18:06:18.051Z,76145.53
2022-08-21T18:08:45.734Z,76151.50
2022-08-21T18:11:23.346Z,76153.47
2022-08-21T18:13:51.768Z,76151.50
2022-08-21T18:16:19.576Z,76169.38
2022-08-21T18:18:51.781Z,76167.38
2022-08-21T18:21:18.579Z,76199.19
2022-08-21T18:23:45.256Z,76213.09
2022-08-21T18:26:15.506Z,76230.97
2022-08-21T18:28:44.281Z,76242.88
2022-08-21T18:31:12.882Z,76244.88
2022-08-21T18:33:57.612Z,76252.81
2022-08-21T18:36:30.721Z,76268.72
2022-08-21T18:39:13.349Z,76286.59
2022-08-21T18:41:46.092Z,76292.56
2022-08-21T18:44:14.735Z,76288.59
2022-08-21T18:46:46.520Z,76318.41
2022-08-21T18:49:13.251Z,76304.50
2022-08-21T18:51:43.497Z,76320.38
2022-08-21T18:54:12.928Z,76314.41
2022-08-21T18:56:40.200Z,76322.38
2022-08-21T18:59:10.515Z,76334.28
2022-08-21T19:01:38.118Z,76356.16
2022-08-21T19:04:06.727Z,76348.19
2022-08-21T19:06:36.560Z,76348.19
2022-08-21T19:09:07.546Z,76354.16
2022-08-21T19:11:35.285Z,76364.09
2022-08-21T19:14:06.549Z,76356.16
2022-08-21T19:16:47.489Z,76362.09
2022-08-21T19:19:15.400Z,76358.13
2022-08-21T19:21:42.400Z,76364.09
2022-08-21T19:24:17.572Z,76376.03
2022-08-21T19:26:45.102Z,76370.06
2022-08-21T19:29:15.295Z,76370.06
2022-08-21T19:31:44.623Z,76383.97
2022-08-21T19:34:18.916Z,76395.91
2022-08-21T19:36:46.270Z,76391.91
2022-08-21T19:39:14.912Z,76393.91
2022-08-21T19:41:45.554Z,76378.00
2022-08-21T19:44:22.352Z,76409.81
2022-08-21T19:46:52.085Z,76415.75
2022-08-21T19:49:22.196Z,76427.69
2022-08-21T19:51:50.066Z,76437.63
2022-08-21T19:54:20.859Z,76437.63
2022-08-21T19:56:48.642Z,76425.69
2022-08-21T19:59:18.362Z,76437.63
2022-08-21T20:01:51.748Z,76415.75
2022-08-21T20:04:19.168Z,76429.66
2022-08-21T20:06:47.083Z,76429.66
2022-08-21T20:09:14.900Z,76419.72
2022-08-21T20:11:54.386Z,76449.53
2022-08-21T20:14:25.671Z,76447.56
2022-08-21T20:16:52.941Z,76433.66
2022-08-21T20:19:21.111Z,76437.63
2022-08-21T20:21:48.423Z,76433.66
2022-08-21T20:24:16.341Z,76451.53
2022-08-21T20:26:48.643Z,76433.66
2022-08-21T20:29:24.605Z,76447.56
2022-08-21T20:32:00.795Z,76455.50
2022-08-21T20:34:27.350Z,76455.50
2022-08-21T20:36:53.964Z,76487.28
2022-08-21T20:39:23.954Z,76511.16
2022-08-21T20:41:52.662Z,76517.09
2022-08-21T20:44:19.481Z,76521.09
2022-08-21T20:46:46.383Z,76533.00
2022-08-21T20:49:19.426Z,76509.16
2022-08-21T20:51:52.215Z,76503.19
2022-08-21T20:54:31.090Z,76513.13
2022-08-21T20:57:21.876Z,76536.97
2022-08-21T20:59:55.468Z,76531.00
2022-08-21T21:02:28.209Z,76535.00
2022-08-21T21:05:09.211Z,76538.97
2022-08-21T21:08:14.258Z,76548.91
2022-08-21T21:11:03.411Z,76558.84
2022-08-21T21:13:38.644Z,76566.78
2022-08-21T21:16:17.499Z,76578.72
2022-08-21T21:18:49.987Z,76576.72
2022-08-21T21:21:42.014Z,76588.63
2022-08-21T21:24:22.926Z,76592.63
2022-08-21T21:27:12.761Z,76592.63
2022-08-21T21:29:56.843Z,76598.56
2022-08-21T21:32:23.763Z,76576.72
2022-08-21T21:34:51.338Z,76598.56
2022-08-21T21:37:25.963Z,76602.56
2022-08-21T21:40:10.418Z,76616.47
2022-08-21T21:42:52.410Z,76634.34
2022-08-21T21:45:38.202Z,76634.34
2022-08-21T21:48:49.576Z,76654.22
2022-08-21T21:51:38.914Z,76650.25
2022-08-21T21:54:30.931Z,76656.22
2022-08-21T21:57:29.652Z,76660.19
2022-08-21T22:00:18.711Z,76654.22
2022-08-21T22:03:03.553Z,76668.13
2022-08-21T22:05:48.935Z,76682.03
2022-08-21T22:08:37.286Z,76686.00
2022-08-21T22:11:24.417Z,76688.00
2022-08-21T22:14:18.759Z,76701.91
2022-08-21T22:16:50.666Z,76703.91
2022-08-21T22:19:25.967Z,76686.00
2022-08-21T22:22:00.487Z,76676.06
2022-08-21T22:24:35.787Z,76693.97
2022-08-21T22:27:13.010Z,76691.97
2022-08-21T22:35:33.317Z,76711.84
2022-08-21T22:38:01.424Z,76701.91
2022-08-21T22:40:32.518Z,76693.97
2022-08-21T22:43:17.573Z,76686.00
2022-08-21T22:46:05.684Z,76693.97
2022-08-21T22:48:37.103Z,76660.19
2022-08-21T22:51:07.703Z,76688.00
2022-08-21T22:53:38.655Z,76691.97
2022-08-21T22:56:07.642Z,76703.91
2022-08-21T22:58:52.371Z,76709.88
2022-08-21T23:01:22.133Z,76686.00
2022-08-21T23:03:57.680Z,76678.06
2022-08-21T23:06:32.739Z,76690.00
2022-08-21T23:09:00.502Z,76674.09
2022-08-21T23:11:50.776Z,76686.00
2022-08-21T23:14:18.151Z,76690.00
2022-08-21T23:16:57.943Z,76713.84
2022-08-21T23:19:58.704Z,76725.75
2022-08-21T23:22:31.951Z,76711.84
2022-08-21T23:25:43.611Z,76725.75
2022-08-21T23:28:28.081Z,76721.78
2022-08-21T23:31:06.852Z,76733.72
2022-08-21T23:33:59.275Z,76745.63
2022-08-21T23:37:48.718Z,76737.69
2022-08-21T23:40:22.450Z,76749.59
2022-08-21T23:43:35.585Z,76731.72
2022-08-21T23:46:21.396Z,76727.75
2022-08-21T23:49:19.748Z,76725.75
2022-08-21T23:52:10.451Z,76747.63
2022-08-21T23:54:56.979Z,76773.47
2022-08-21T23:57:50.940Z,76763.53
